Hauptseite
METAR-TAF:

METAR-TAF

Flughäfen :

Umiujaq, Québec, Kanada

Breite: 56-32N, Länge: 076-31W, Höhe: 71 m

Beobachtung

Neuester Wetterbericht von vor 3 Stunden und 5 Minuten, um 22:00 UTC
Wind 23 kt aus Süd, Böen bis zu 30 kt
Temperatur 0°C
Luftfeuchtigkeit 74%
Luftdruck 993 hPa
Sichtweite: 22.5 km
Durchbrochene Bewölkung in der Höhe von 3300 ft
Durchbrochene Bewölkung in der Höhe von 4400 ft
Geschlossene Wolkendecke in der Höhe von 18000 ft
Schnee leicht, Schneefegen

METAR: CYMU 162200Z 17023G30KT 14SM -SN DRSN BKN033 BKN044 OVC180 00/M04 A2931 RMK SC6SC1AS1 LAST STFD OBS/NEXT 171300UTC SLP931

Zeit: 20:05 (01:05 UTC)


TAF: fehlend

Wetterbeobachtungen und Prognosen von mehr als 4000 Flughäfen (METAR und TAF Bericht).

Die verfügbaren Stationen werden durch gelbe und rote Markierungen auf der Karte dargestellt.

Führen Sie die Maus auf sie, um den Namen der Station zu sehen.

Darauf klicken, um die Beobachtung von Wetterbeobachtungen und Prognosen zu sehen.

Um die Karte zu ändern : klicken Sie auf den grünen Tasten mit einem schwarzen Kreuz Zum Vergrößern, auf den grünen Button mit einem Gedankenstrich zu verkleinern, oder auf die grünen Pfeile für benachbarte Karten.


METAR-TAF: